EZY45ZD EGJJ-EGKK
Flight info
| Callsign | EZY45ZD |
|---|---|
| Flight time | 0h 41m |
| Altitude | 23000 |
| Route | ORIST L982 VASUX |
| Aircraft | A320/M-SDE3FGHIRWY/LB1 |
Departure
| Time | 2026-05-04 20:06 |
|---|---|
| Airport | Jersey Airport (EGJJ) |
Arrival
| Time | 2026-05-04 20:47 |
|---|---|
| Airport | London Gatwick Airport (EGKK) |
| Time | Latitude | Longitude | Altitude | Speed | Heading |
|---|---|---|---|---|---|
| 2026-05-04 19:55 | 49.20558 | -2.19699 | 284 ft | 0 kts | 174° |
| 2026-05-04 19:59 | 49.20578 | -2.19701 | 286 ft | 4 kts | 179° |
| 2026-05-04 19:59 | 49.20605 | -2.19699 | 289 ft | 4 kts | 198° |
| 2026-05-04 19:59 | 49.20624 | -2.19680 | 286 ft | 2 kts | 250° |
| 2026-05-04 19:59 | 49.20625 | -2.19677 | 286 ft | 0 kts | 251° |
| 2026-05-04 20:02 | 49.20621 | -2.19694 | 284 ft | 9 kts | 251° |
| 2026-05-04 20:02 | 49.20611 | -2.19789 | 284 ft | 14 kts | 263° |
| 2026-05-04 20:02 | 49.20594 | -2.19915 | 284 ft | 12 kts | 235° |
| 2026-05-04 20:03 | 49.20532 | -2.19939 | 284 ft | 7 kts | 206° |
| 2026-05-04 20:03 | 49.20522 | -2.20004 | 284 ft | 8 kts | 278° |
| 2026-05-04 20:03 | 49.20543 | -2.20112 | 284 ft | 11 kts | 287° |
| 2026-05-04 20:03 | 49.20563 | -2.20215 | 287 ft | 9 kts | 287° |
| 2026-05-04 20:04 | 49.20586 | -2.20336 | 284 ft | 16 kts | 287° |
| 2026-05-04 20:04 | 49.20615 | -2.20487 | 284 ft | 14 kts | 286° |
| 2026-05-04 20:04 | 49.20624 | -2.20562 | 284 ft | 0 kts | 276° |
| 2026-05-04 20:05 | 49.20625 | -2.20575 | 284 ft | 7 kts | 275° |
| 2026-05-04 20:05 | 49.20642 | -2.20682 | 286 ft | 11 kts | 309° |
| 2026-05-04 20:05 | 49.20699 | -2.20665 | 283 ft | 9 kts | 57° |
| 2026-05-04 20:05 | 49.20710 | -2.20596 | 283 ft | 0 kts | 83° |
| 2026-05-04 20:06 | 49.20712 | -2.20568 | 283 ft | 21 kts | 83° |
| 2026-05-04 20:06 | 49.20769 | -2.19911 | 285 ft | 100 kts | 83° |
| 2026-05-04 20:06 | 49.20888 | -2.18559 | 355 ft | 149 kts | 82° |
| 2026-05-04 20:06 | 49.21024 | -2.16972 | 959 ft | 155 kts | 81° |
| 2026-05-04 20:07 | 49.21155 | -2.15296 | 1630 ft | 163 kts | 82° |
| 2026-05-04 20:07 | 49.21294 | -2.13588 | 2256 ft | 164 kts | 81° |
| 2026-05-04 20:07 | 49.21445 | -2.11774 | 2636 ft | 182 kts | 82° |
| 2026-05-04 20:07 | 49.21616 | -2.09735 | 2902 ft | 204 kts | 82° |
| 2026-05-04 20:08 | 49.21819 | -2.07500 | 3430 ft | 216 kts | 76° |
| 2026-05-04 20:08 | 49.22524 | -2.05507 | 4215 ft | 217 kts | 41° |
| 2026-05-04 20:08 | 49.23875 | -2.04489 | 4829 ft | 223 kts | 8° |
| 2026-05-04 20:08 | 49.25413 | -2.04376 | 4973 ft | 222 kts | 2° |
| 2026-05-04 20:09 | 49.26988 | -2.04313 | 5022 ft | 236 kts | 2° |
| 2026-05-04 20:09 | 49.28710 | -2.04239 | 5010 ft | 259 kts | 2° |
| 2026-05-04 20:09 | 49.30529 | -2.04158 | 5012 ft | 262 kts | 2° |
| 2026-05-04 20:09 | 49.32357 | -2.04071 | 5011 ft | 263 kts | 2° |
| 2026-05-04 20:10 | 49.34180 | -2.03979 | 5010 ft | 263 kts | 2° |
| 2026-05-04 20:10 | 49.36015 | -2.03882 | 5016 ft | 263 kts | 2° |
| 2026-05-04 20:10 | 49.37851 | -2.03790 | 5012 ft | 264 kts | 2° |
| 2026-05-04 20:10 | 49.39685 | -2.03700 | 5013 ft | 264 kts | 2° |
| 2026-05-04 20:11 | 49.41522 | -2.03608 | 5013 ft | 264 kts | 2° |
| 2026-05-04 20:11 | 49.43360 | -2.03514 | 5010 ft | 264 kts | 2° |
| 2026-05-04 20:11 | 49.45195 | -2.03419 | 5013 ft | 264 kts | 2° |
| 2026-05-04 20:11 | 49.47031 | -2.03325 | 5015 ft | 264 kts | 2° |
| 2026-05-04 20:12 | 49.48868 | -2.03230 | 5017 ft | 264 kts | 2° |
| 2026-05-04 20:12 | 49.50687 | -2.03136 | 5016 ft | 264 kts | 2° |
| 2026-05-04 20:12 | 49.52527 | -2.03039 | 5022 ft | 264 kts | 2° |
| 2026-05-04 20:12 | 49.54366 | -2.02941 | 5015 ft | 264 kts | 2° |
| 2026-05-04 20:13 | 49.56206 | -2.02844 | 5022 ft | 264 kts | 2° |
| 2026-05-04 20:13 | 49.58052 | -2.02747 | 5021 ft | 264 kts | 2° |
| 2026-05-04 20:13 | 49.59892 | -2.02649 | 5018 ft | 264 kts | 3° |
| 2026-05-04 20:13 | 49.61710 | -2.02549 | 5018 ft | 264 kts | 3° |
| 2026-05-04 20:14 | 49.63551 | -2.02449 | 5022 ft | 264 kts | 2° |
| 2026-05-04 20:14 | 49.65393 | -2.02350 | 5020 ft | 265 kts | 2° |
| 2026-05-04 20:14 | 49.67237 | -2.02251 | 5022 ft | 265 kts | 3° |
| 2026-05-04 20:14 | 49.69086 | -2.02150 | 5024 ft | 265 kts | 3° |
| 2026-05-04 20:15 | 49.70927 | -2.02050 | 5023 ft | 265 kts | 3° |
| 2026-05-04 20:15 | 49.72771 | -2.01950 | 5024 ft | 265 kts | 3° |
| 2026-05-04 20:15 | 49.74592 | -2.01853 | 5022 ft | 265 kts | 3° |
| 2026-05-04 20:15 | 49.76442 | -2.01757 | 5021 ft | 265 kts | 3° |
| 2026-05-04 20:16 | 49.78281 | -2.01521 | 5017 ft | 265 kts | 12° |
| 2026-05-04 20:16 | 49.80024 | -2.00595 | 5021 ft | 264 kts | 27° |
| 2026-05-04 20:16 | 49.81652 | -1.99280 | 5031 ft | 264 kts | 28° |
| 2026-05-04 20:16 | 49.83264 | -1.97986 | 5050 ft | 266 kts | 28° |
| 2026-05-04 20:17 | 49.84920 | -1.96660 | 5901 ft | 268 kts | 28° |
| 2026-05-04 20:17 | 49.86586 | -1.95326 | 6841 ft | 270 kts | 28° |
| 2026-05-04 20:17 | 49.88253 | -1.93985 | 7699 ft | 274 kts | 28° |
| 2026-05-04 20:17 | 49.89915 | -1.92644 | 8540 ft | 278 kts | 28° |
| 2026-05-04 20:18 | 49.91674 | -1.91226 | 9409 ft | 282 kts | 28° |
| 2026-05-04 20:18 | 49.93435 | -1.89808 | 10203 ft | 289 kts | 28° |
| 2026-05-04 20:18 | 49.95271 | -1.88326 | 10479 ft | 312 kts | 28° |
| 2026-05-04 20:18 | 49.97244 | -1.86732 | 10991 ft | 325 kts | 28° |
| 2026-05-04 20:19 | 49.99267 | -1.85098 | 11717 ft | 330 kts | 28° |
| 2026-05-04 20:19 | 50.01321 | -1.83444 | 12478 ft | 334 kts | 28° |
| 2026-05-04 20:19 | 50.03406 | -1.81787 | 13223 ft | 338 kts | 28° |
| 2026-05-04 20:19 | 50.05521 | -1.80120 | 13956 ft | 343 kts | 27° |
| 2026-05-04 20:20 | 50.07658 | -1.78437 | 14624 ft | 346 kts | 28° |
| 2026-05-04 20:20 | 50.09818 | -1.76730 | 15297 ft | 349 kts | 28° |
| 2026-05-04 20:20 | 50.11978 | -1.74953 | 15960 ft | 352 kts | 33° |
| 2026-05-04 20:20 | 50.13946 | -1.72681 | 16614 ft | 354 kts | 41° |
| 2026-05-04 20:21 | 50.15850 | -1.70213 | 17283 ft | 357 kts | 41° |
| 2026-05-04 20:21 | 50.17745 | -1.67762 | 17931 ft | 360 kts | 41° |
| 2026-05-04 20:21 | 50.18839 | -1.66346 | 18298 ft | 362 kts | 42° |
| 2026-05-04 20:22 | 50.19805 | -1.65096 | 18576 ft | 363 kts | 41° |
| 2026-05-04 20:22 | 50.21761 | -1.62564 | 19126 ft | 367 kts | 41° |
| 2026-05-04 20:22 | 50.23710 | -1.60032 | 19636 ft | 371 kts | 42° |
| 2026-05-04 20:23 | 50.25735 | -1.57401 | 20167 ft | 376 kts | 42° |
| 2026-05-04 20:23 | 50.27725 | -1.54814 | 20683 ft | 380 kts | 42° |
| 2026-05-04 20:23 | 50.29773 | -1.52156 | 21216 ft | 384 kts | 41° |
| 2026-05-04 20:23 | 50.31843 | -1.49474 | 21722 ft | 388 kts | 41° |
| 2026-05-04 20:24 | 50.33938 | -1.46760 | 22241 ft | 392 kts | 41° |
| 2026-05-04 20:24 | 50.36048 | -1.44021 | 22755 ft | 397 kts | 41° |
| 2026-05-04 20:24 | 50.38189 | -1.41237 | 22981 ft | 399 kts | 41° |
| 2026-05-04 20:24 | 50.40327 | -1.38451 | 23018 ft | 400 kts | 41° |
| 2026-05-04 20:25 | 50.42436 | -1.35698 | 23015 ft | 399 kts | 41° |
| 2026-05-04 20:25 | 50.44572 | -1.32908 | 23014 ft | 399 kts | 41° |
| 2026-05-04 20:25 | 50.46698 | -1.30130 | 22401 ft | 399 kts | 41° |
| 2026-05-04 20:25 | 50.48807 | -1.27374 | 21830 ft | 398 kts | 41° |
| 2026-05-04 20:26 | 50.50859 | -1.24513 | 21340 ft | 393 kts | 47° |
| 2026-05-04 20:26 | 50.52750 | -1.21451 | 20866 ft | 389 kts | 47° |
| 2026-05-04 20:26 | 50.54615 | -1.18429 | 20405 ft | 385 kts | 47° |
| 2026-05-04 20:26 | 50.56439 | -1.15480 | 19951 ft | 381 kts | 47° |
| 2026-05-04 20:27 | 50.58276 | -1.12509 | 19499 ft | 378 kts | 47° |
| 2026-05-04 20:27 | 50.60093 | -1.09567 | 19052 ft | 374 kts | 47° |
| 2026-05-04 20:27 | 50.61894 | -1.06645 | 18608 ft | 371 kts | 47° |
| 2026-05-04 20:27 | 50.63680 | -1.03738 | 18146 ft | 368 kts | 47° |
| 2026-05-04 20:28 | 50.65452 | -1.00845 | 17634 ft | 365 kts | 47° |
| 2026-05-04 20:28 | 50.67190 | -0.98003 | 17129 ft | 363 kts | 47° |
| 2026-05-04 20:28 | 50.68705 | -0.95525 | 16695 ft | 361 kts | 47° |
| 2026-05-04 20:28 | 50.70442 | -0.92680 | 16204 ft | 358 kts | 47° |
| 2026-05-04 20:29 | 50.72168 | -0.89854 | 15726 ft | 356 kts | 47° |
| 2026-05-04 20:29 | 50.73880 | -0.87047 | 15270 ft | 354 kts | 46° |
| 2026-05-04 20:29 | 50.75568 | -0.84281 | 14816 ft | 352 kts | 46° |
| 2026-05-04 20:29 | 50.77258 | -0.81504 | 14485 ft | 346 kts | 46° |
| 2026-05-04 20:30 | 50.78900 | -0.78805 | 14357 ft | 334 kts | 46° |
| 2026-05-04 20:30 | 50.80487 | -0.76194 | 14237 ft | 323 kts | 46° |
| 2026-05-04 20:30 | 50.81998 | -0.73705 | 14107 ft | 313 kts | 46° |
| 2026-05-04 20:30 | 50.83494 | -0.71243 | 13855 ft | 308 kts | 46° |
| 2026-05-04 20:31 | 50.84973 | -0.68807 | 13499 ft | 306 kts | 46° |
| 2026-05-04 20:31 | 50.86441 | -0.66381 | 13119 ft | 304 kts | 46° |
| 2026-05-04 20:31 | 50.87902 | -0.63961 | 12737 ft | 303 kts | 47° |
| 2026-05-04 20:31 | 50.89352 | -0.61556 | 12361 ft | 301 kts | 47° |
| 2026-05-04 20:32 | 50.90799 | -0.59147 | 11972 ft | 300 kts | 47° |
| 2026-05-04 20:32 | 50.92211 | -0.56775 | 11849 ft | 290 kts | 49° |
| 2026-05-04 20:32 | 50.93325 | -0.54156 | 11274 ft | 290 kts | 68° |
| 2026-05-04 20:32 | 50.93723 | -0.51010 | 10248 ft | 299 kts | 92° |
| 2026-05-04 20:33 | 50.93379 | -0.47823 | 9694 ft | 291 kts | 103° |
| 2026-05-04 20:33 | 50.92987 | -0.44873 | 9557 ft | 270 kts | 102° |
| 2026-05-04 20:33 | 50.92638 | -0.42022 | 9403 ft | 250 kts | 101° |
| 2026-05-04 20:33 | 50.92332 | -0.39461 | 9053 ft | 241 kts | 101° |
| 2026-05-04 20:34 | 50.92029 | -0.36910 | 8562 ft | 238 kts | 101° |
| 2026-05-04 20:34 | 50.91730 | -0.34424 | 8056 ft | 236 kts | 101° |
| 2026-05-04 20:34 | 50.91414 | -0.31823 | 7522 ft | 234 kts | 101° |
| 2026-05-04 20:34 | 50.91114 | -0.29359 | 7042 ft | 232 kts | 100° |
| 2026-05-04 20:35 | 50.90807 | -0.26839 | 6648 ft | 232 kts | 100° |
| 2026-05-04 20:35 | 50.90504 | -0.24376 | 6176 ft | 229 kts | 100° |
| 2026-05-04 20:35 | 50.90198 | -0.21908 | 5657 ft | 227 kts | 100° |
| 2026-05-04 20:35 | 50.89902 | -0.19509 | 5155 ft | 225 kts | 99° |
| 2026-05-04 20:36 | 50.89606 | -0.17122 | 4690 ft | 223 kts | 99° |
| 2026-05-04 20:36 | 50.89315 | -0.14775 | 4195 ft | 220 kts | 99° |
| 2026-05-04 20:36 | 50.89023 | -0.12421 | 4005 ft | 217 kts | 99° |
| 2026-05-04 20:36 | 50.88731 | -0.10062 | 4004 ft | 219 kts | 99° |
| 2026-05-04 20:37 | 50.88599 | -0.07672 | 3994 ft | 217 kts | 83° |
| 2026-05-04 20:37 | 50.89006 | -0.05430 | 3752 ft | 215 kts | 62° |
| 2026-05-04 20:37 | 50.89910 | -0.03573 | 3437 ft | 213 kts | 40° |
| 2026-05-04 20:37 | 50.91158 | -0.02378 | 3200 ft | 208 kts | 20° |
| 2026-05-04 20:38 | 50.92514 | -0.01952 | 3091 ft | 200 kts | 2° |
| 2026-05-04 20:38 | 50.93905 | -0.02293 | 3003 ft | 196 kts | 341° |
| 2026-05-04 20:38 | 50.95057 | -0.03277 | 3001 ft | 196 kts | 323° |
| 2026-05-04 20:38 | 50.95980 | -0.04870 | 3000 ft | 198 kts | 303° |
| 2026-05-04 20:39 | 50.96507 | -0.06823 | 3009 ft | 200 kts | 285° |
| 2026-05-04 20:39 | 50.96859 | -0.09038 | 2999 ft | 202 kts | 286° |
| 2026-05-04 20:39 | 50.97209 | -0.11194 | 3010 ft | 201 kts | 286° |
| 2026-05-04 20:39 | 50.97559 | -0.13353 | 3008 ft | 201 kts | 286° |
| 2026-05-04 20:40 | 50.97907 | -0.15505 | 3007 ft | 201 kts | 286° |
| 2026-05-04 20:40 | 50.98252 | -0.17628 | 3010 ft | 201 kts | 288° |
| 2026-05-04 20:40 | 50.98797 | -0.19662 | 3008 ft | 199 kts | 302° |
| 2026-05-04 20:40 | 50.99594 | -0.21435 | 3006 ft | 198 kts | 310° |
| 2026-05-04 20:41 | 51.00441 | -0.23184 | 3006 ft | 198 kts | 309° |
| 2026-05-04 20:41 | 51.01276 | -0.24919 | 3002 ft | 199 kts | 309° |
| 2026-05-04 20:41 | 51.02102 | -0.26640 | 3011 ft | 199 kts | 309° |
| 2026-05-04 20:41 | 51.02933 | -0.28363 | 3003 ft | 199 kts | 309° |
| 2026-05-04 20:42 | 51.03776 | -0.30115 | 3008 ft | 199 kts | 309° |
| 2026-05-04 20:42 | 51.04608 | -0.31852 | 3006 ft | 198 kts | 309° |
| 2026-05-04 20:42 | 51.05443 | -0.33598 | 3006 ft | 199 kts | 309° |
| 2026-05-04 20:42 | 51.06277 | -0.35341 | 3007 ft | 199 kts | 309° |
| 2026-05-04 20:43 | 51.07117 | -0.37103 | 3011 ft | 199 kts | 309° |
| 2026-05-04 20:43 | 51.07938 | -0.38820 | 3011 ft | 199 kts | 309° |
| 2026-05-04 20:43 | 51.08925 | -0.40313 | 2993 ft | 195 kts | 336° |
| 2026-05-04 20:43 | 51.10233 | -0.40734 | 2757 ft | 192 kts | 10° |
| 2026-05-04 20:44 | 51.11425 | -0.39930 | 2617 ft | 187 kts | 43° |
| 2026-05-04 20:44 | 51.12137 | -0.38244 | 2447 ft | 185 kts | 73° |
| 2026-05-04 20:44 | 51.12429 | -0.36245 | 2214 ft | 185 kts | 77° |
| 2026-05-04 20:44 | 51.12694 | -0.34306 | 1999 ft | 180 kts | 76° |
| 2026-05-04 20:45 | 51.12944 | -0.32501 | 1753 ft | 175 kts | 76° |
| 2026-05-04 20:45 | 51.13195 | -0.30693 | 1520 ft | 158 kts | 76° |
| 2026-05-04 20:45 | 51.13418 | -0.29094 | 1312 ft | 143 kts | 76° |
| 2026-05-04 20:45 | 51.13625 | -0.27602 | 1116 ft | 137 kts | 77° |
| 2026-05-04 20:46 | 51.13818 | -0.26220 | 938 ft | 136 kts | 75° |
| 2026-05-04 20:46 | 51.14010 | -0.24762 | 773 ft | 134 kts | 77° |
| 2026-05-04 20:46 | 51.14212 | -0.23321 | 575 ft | 134 kts | 74° |
| 2026-05-04 20:46 | 51.14413 | -0.21916 | 419 ft | 134 kts | 76° |
| 2026-05-04 20:47 | 51.14610 | -0.20494 | 249 ft | 133 kts | 75° |
| 2026-05-04 20:47 | 51.14786 | -0.19241 | 211 ft | 102 kts | 78° |
| 2026-05-04 20:47 | 51.14891 | -0.18475 | 212 ft | 57 kts | 77° |
| 2026-05-04 20:47 | 51.14958 | -0.18039 | 212 ft | 34 kts | 69° |
| 2026-05-04 20:48 | 51.15073 | -0.17773 | 216 ft | 11 kts | 34° |
| 2026-05-04 20:48 | 51.15155 | -0.17759 | 207 ft | 13 kts | 352° |
| 2026-05-04 20:48 | 51.15202 | -0.17773 | 209 ft | 0 kts | 351° |
| 2026-05-04 20:48 | 51.15203 | -0.17773 | 216 ft | 0 kts | 351° |
| 2026-05-04 20:49 | 51.15205 | -0.17774 | 214 ft | 0 kts | 351° |
| 2026-05-04 20:50 | 51.15227 | -0.17784 | 206 ft | 11 kts | 339° |
| 2026-05-04 20:50 | 51.15238 | -0.17905 | 207 ft | 12 kts | 258° |
| 2026-05-04 20:50 | 51.15221 | -0.18024 | 205 ft | 10 kts | 261° |
| 2026-05-04 20:51 | 51.15257 | -0.18099 | 207 ft | 9 kts | 344° |
| 2026-05-04 20:51 | 51.15324 | -0.18123 | 212 ft | 15 kts | 348° |
| 2026-05-04 20:51 | 51.15439 | -0.18163 | 212 ft | 18 kts | 347° |
| 2026-05-04 20:51 | 51.15562 | -0.18215 | 205 ft | 17 kts | 347° |
| 2026-05-04 20:52 | 51.15655 | -0.18215 | 208 ft | 12 kts | 50° |
| 2026-05-04 20:52 | 51.15680 | -0.18085 | 212 ft | 9 kts | 74° |
| 2026-05-04 20:52 | 51.15735 | -0.18043 | 205 ft | 10 kts | 354° |
| 2026-05-04 20:52 | 51.15794 | -0.18063 | 207 ft | 2 kts | 349° |
| 2026-05-04 20:53 | 51.15800 | -0.18059 | 209 ft | 2 kts | 15° |
| 2026-05-04 20:53 | 51.15808 | -0.18006 | 212 ft | 8 kts | 79° |
| 2026-05-04 20:53 | 51.15816 | -0.17940 | 205 ft | 0 kts | 77° |